sensor_id;sensor_type;location;lat;lon;timestamp;temperature;humidity
80216;DHT22;69532;37.974;23.708;2023-04-29T00:00:26;19.10;38.80
80216;DHT22;69532;37.974;23.708;2023-04-29T00:02:52;19.10;38.90
80216;DHT22;69532;37.974;23.708;2023-04-29T00:05:17;19.10;38.80
80216;DHT22;69532;37.974;23.708;2023-04-29T00:07:43;19.10;39.00
80216;DHT22;69532;37.974;23.708;2023-04-29T00:10:09;19.10;38.90
80216;DHT22;69532;37.974;23.708;2023-04-29T00:12:36;19.10;39.00
80216;DHT22;69532;37.974;23.708;2023-04-29T00:15:02;19.10;39.00
80216;DHT22;69532;37.974;23.708;2023-04-29T00:17:29;19.00;39.00
80216;DHT22;69532;37.974;23.708;2023-04-29T00:19:54;19.00;39.00
80216;DHT22;69532;37.974;23.708;2023-04-29T00:22:20;19.00;39.00
80216;DHT22;69532;37.974;23.708;2023-04-29T00:24:47;19.00;39.10
80216;DHT22;69532;37.974;23.708;2023-04-29T00:27:12;19.00;39.20
80216;DHT22;69532;37.974;23.708;2023-04-29T00:29:39;19.00;39.40
80216;DHT22;69532;37.974;23.708;2023-04-29T00:32:04;19.00;39.30
80216;DHT22;69532;37.974;23.708;2023-04-29T00:34:30;19.00;39.20
80216;DHT22;69532;37.974;23.708;2023-04-29T00:36:56;19.00;39.30
80216;DHT22;69532;37.974;23.708;2023-04-29T00:39:21;19.00;39.30
80216;DHT22;69532;37.974;23.708;2023-04-29T00:41:47;19.00;39.40
80216;DHT22;69532;37.974;23.708;2023-04-29T00:44:13;19.00;39.60
80216;DHT22;69532;37.974;23.708;2023-04-29T00:46:39;19.00;39.70
80216;DHT22;69532;37.974;23.708;2023-04-29T00:49:04;18.90;39.70
80216;DHT22;69532;37.974;23.708;2023-04-29T00:51:30;19.00;39.70
80216;DHT22;69532;37.974;23.708;2023-04-29T00:53:57;18.90;39.60
80216;DHT22;69532;37.974;23.708;2023-04-29T00:56:23;19.00;39.60
80216;DHT22;69532;37.974;23.708;2023-04-29T00:58:49;19.00;39.60
80216;DHT22;69532;37.974;23.708;2023-04-29T01:01:18;19.00;39.60
80216;DHT22;69532;37.974;23.708;2023-04-29T01:03:44;19.00;39.60
80216;DHT22;69532;37.974;23.708;2023-04-29T01:06:48;19.00;39.50
80216;DHT22;69532;37.974;23.708;2023-04-29T01:14:52;19.00;39.80
80216;DHT22;69532;37.974;23.708;2023-04-29T01:17:22;19.00;39.80
80216;DHT22;69532;37.974;23.708;2023-04-29T01:19:54;19.00;39.80
80216;DHT22;69532;37.974;23.708;2023-04-29T01:22:21;19.00;39.90
80216;DHT22;69532;37.974;23.708;2023-04-29T01:24:47;19.00;39.80
80216;DHT22;69532;37.974;23.708;2023-04-29T01:27:36;19.00;39.80
80216;DHT22;69532;37.974;23.708;2023-04-29T01:35:22;19.00;39.90
80216;DHT22;69532;37.974;23.708;2023-04-29T01:40:25;19.00;40.00
80216;DHT22;69532;37.974;23.708;2023-04-29T01:43:01;19.00;40.00
80216;DHT22;69532;37.974;23.708;2023-04-29T01:45:30;19.00;40.00
80216;DHT22;69532;37.974;23.708;2023-04-29T01:47:57;19.00;40.00
80216;DHT22;69532;37.974;23.708;2023-04-29T01:50:23;19.00;39.90
80216;DHT22;69532;37.974;23.708;2023-04-29T01:52:49;19.00;40.20
80216;DHT22;69532;37.974;23.708;2023-04-29T01:55:15;18.90;40.10
80216;DHT22;69532;37.974;23.708;2023-04-29T01:57:41;18.90;40.20
80216;DHT22;69532;37.974;23.708;2023-04-29T02:00:09;18.90;40.30
80216;DHT22;69532;37.974;23.708;2023-04-29T02:02:36;18.90;40.10
80216;DHT22;69532;37.974;23.708;2023-04-29T02:05:02;18.80;40.00
80216;DHT22;69532;37.974;23.708;2023-04-29T02:07:27;18.90;40.10
80216;DHT22;69532;37.974;23.708;2023-04-29T02:09:53;18.90;40.10
80216;DHT22;69532;37.974;23.708;2023-04-29T02:12:19;18.90;40.10
80216;DHT22;69532;37.974;23.708;2023-04-29T02:14:44;18.90;40.10
80216;DHT22;69532;37.974;23.708;2023-04-29T02:17:12;18.90;40.10
80216;DHT22;69532;37.974;23.708;2023-04-29T02:19:38;18.90;40.20
80216;DHT22;69532;37.974;23.708;2023-04-29T02:22:03;18.90;40.20
80216;DHT22;69532;37.974;23.708;2023-04-29T02:24:29;18.90;40.20
80216;DHT22;69532;37.974;23.708;2023-04-29T02:26:55;18.90;41.30
80216;DHT22;69532;37.974;23.708;2023-04-29T02:29:21;18.90;40.40
80216;DHT22;69532;37.974;23.708;2023-04-29T02:31:47;18.80;40.40
80216;DHT22;69532;37.974;23.708;2023-04-29T02:34:12;18.80;40.40
80216;DHT22;69532;37.974;23.708;2023-04-29T02:36:38;18.80;40.40
80216;DHT22;69532;37.974;23.708;2023-04-29T02:39:04;18.80;40.30
80216;DHT22;69532;37.974;23.708;2023-04-29T02:41:29;18.80;40.40
80216;DHT22;69532;37.974;23.708;2023-04-29T02:43:55;18.80;40.40
80216;DHT22;69532;37.974;23.708;2023-04-29T02:46:21;18.80;40.30
80216;DHT22;69532;37.974;23.708;2023-04-29T02:48:46;18.90;40.20
80216;DHT22;69532;37.974;23.708;2023-04-29T02:51:12;18.90;40.10
80216;DHT22;69532;37.974;23.708;2023-04-29T02:53:38;18.90;40.20
80216;DHT22;69532;37.974;23.708;2023-04-29T02:56:04;18.80;40.30
80216;DHT22;69532;37.974;23.708;2023-04-29T02:58:31;18.80;40.40
80216;DHT22;69532;37.974;23.708;2023-04-29T03:00:56;18.70;40.40
80216;DHT22;69532;37.974;23.708;2023-04-29T03:03:22;18.70;40.40
80216;DHT22;69532;37.974;23.708;2023-04-29T03:05:48;18.80;40.30
80216;DHT22;69532;37.974;23.708;2023-04-29T03:08:13;18.80;40.30
80216;DHT22;69532;37.974;23.708;2023-04-29T03:10:39;18.70;40.50
80216;DHT22;69532;37.974;23.708;2023-04-29T03:13:05;18.70;40.60
80216;DHT22;69532;37.974;23.708;2023-04-29T03:15:31;18.60;40.80
80216;DHT22;69532;37.974;23.708;2023-04-29T03:17:56;18.60;40.90
80216;DHT22;69532;37.974;23.708;2023-04-29T03:20:26;18.50;40.90
80216;DHT22;69532;37.974;23.708;2023-04-29T03:22:52;18.50;41.00
80216;DHT22;69532;37.974;23.708;2023-04-29T03:25:17;18.50;40.80
80216;DHT22;69532;37.974;23.708;2023-04-29T03:27:43;18.50;40.80
80216;DHT22;69532;37.974;23.708;2023-04-29T03:30:09;18.50;40.80
80216;DHT22;69532;37.974;23.708;2023-04-29T03:32:35;18.50;40.70
80216;DHT22;69532;37.974;23.708;2023-04-29T03:35:01;18.50;40.70
80216;DHT22;69532;37.974;23.708;2023-04-29T03:37:26;18.50;40.70
80216;DHT22;69532;37.974;23.708;2023-04-29T03:39:52;18.60;40.60
80216;DHT22;69532;37.974;23.708;2023-04-29T03:42:18;18.60;40.60
80216;DHT22;69532;37.974;23.708;2023-04-29T03:44:43;18.60;40.70
80216;DHT22;69532;37.974;23.708;2023-04-29T03:47:09;18.50;40.70
80216;DHT22;69532;37.974;23.708;2023-04-29T03:49:35;18.50;40.90
80216;DHT22;69532;37.974;23.708;2023-04-29T03:52:00;18.50;40.90
80216;DHT22;69532;37.974;23.708;2023-04-29T03:54:26;18.50;40.90
80216;DHT22;69532;37.974;23.708;2023-04-29T03:56:52;18.50;40.80
80216;DHT22;69532;37.974;23.708;2023-04-29T03:59:18;18.50;41.10
80216;DHT22;69532;37.974;23.708;2023-04-29T04:01:44;18.50;42.20
80216;DHT22;69532;37.974;23.708;2023-04-29T04:04:10;18.50;41.20
80216;DHT22;69532;37.974;23.708;2023-04-29T04:06:35;18.50;41.20
80216;DHT22;69532;37.974;23.708;2023-04-29T04:09:01;18.50;41.20
80216;DHT22;69532;37.974;23.708;2023-04-29T04:11:27;18.50;41.30
80216;DHT22;69532;37.974;23.708;2023-04-29T04:13:52;18.50;41.40
80216;DHT22;69532;37.974;23.708;2023-04-29T04:16:18;18.60;41.20
80216;DHT22;69532;37.974;23.708;2023-04-29T04:18:44;18.70;41.20
80216;DHT22;69532;37.974;23.708;2023-04-29T04:21:11;18.80;41.00
80216;DHT22;69532;37.974;23.708;2023-04-29T04:23:37;18.90;40.60
80216;DHT22;69532;37.974;23.708;2023-04-29T04:26:05;19.00;40.30
80216;DHT22;69532;37.974;23.708;2023-04-29T04:28:31;19.20;39.90
80216;DHT22;69532;37.974;23.708;2023-04-29T04:30:57;19.20;39.70
80216;DHT22;69532;37.974;23.708;2023-04-29T04:33:24;19.40;39.50
80216;DHT22;69532;37.974;23.708;2023-04-29T04:35:50;19.40;39.40
80216;DHT22;69532;37.974;23.708;2023-04-29T04:38:16;19.40;39.20
80216;DHT22;69532;37.974;23.708;2023-04-29T04:40:42;19.60;39.10
80216;DHT22;69532;37.974;23.708;2023-04-29T04:43:08;19.60;38.80
80216;DHT22;69532;37.974;23.708;2023-04-29T04:45:33;19.80;38.70
80216;DHT22;69532;37.974;23.708;2023-04-29T04:47:59;19.90;38.50
80216;DHT22;69532;37.974;23.708;2023-04-29T04:50:28;20.00;38.10
80216;DHT22;69532;37.974;23.708;2023-04-29T04:52:57;20.10;37.90
80216;DHT22;69532;37.974;23.708;2023-04-29T04:55:23;20.20;37.50
80216;DHT22;69532;37.974;23.708;2023-04-29T04:57:49;20.40;37.30
80216;DHT22;69532;37.974;23.708;2023-04-29T05:00:15;20.50;37.00
80216;DHT22;69532;37.974;23.708;2023-04-29T05:02:41;20.70;36.60
80216;DHT22;69532;37.974;23.708;2023-04-29T05:05:07;20.80;36.30
80216;DHT22;69532;37.974;23.708;2023-04-29T05:07:33;20.90;36.10
80216;DHT22;69532;37.974;23.708;2023-04-29T05:10:02;21.00;35.80
80216;DHT22;69532;37.974;23.708;2023-04-29T05:12:28;21.20;35.40
80216;DHT22;69532;37.974;23.708;2023-04-29T05:14:57;21.30;35.30
80216;DHT22;69532;37.974;23.708;2023-04-29T05:17:23;21.50;34.80
80216;DHT22;69532;37.974;23.708;2023-04-29T05:19:48;21.60;34.60
80216;DHT22;69532;37.974;23.708;2023-04-29T05:22:14;21.70;34.30
80216;DHT22;69532;37.974;23.708;2023-04-29T05:24:40;21.80;34.10
80216;DHT22;69532;37.974;23.708;2023-04-29T05:27:06;21.90;33.90
80216;DHT22;69532;37.974;23.708;2023-04-29T05:29:31;22.00;33.60
80216;DHT22;69532;37.974;23.708;2023-04-29T05:31:57;22.10;33.40
80216;DHT22;69532;37.974;23.708;2023-04-29T05:34:23;22.20;33.10
80216;DHT22;69532;37.974;23.708;2023-04-29T05:36:49;22.30;33.00
80216;DHT22;69532;37.974;23.708;2023-04-29T05:39:15;22.30;32.80
80216;DHT22;69532;37.974;23.708;2023-04-29T05:41:42;22.40;32.70
80216;DHT22;69532;37.974;23.708;2023-04-29T05:44:08;22.50;32.50
80216;DHT22;69532;37.974;23.708;2023-04-29T05:46:34;22.60;32.20
80216;DHT22;69532;37.974;23.708;2023-04-29T05:48:59;22.70;32.20
80216;DHT22;69532;37.974;23.708;2023-04-29T05:51:25;22.70;31.90
80216;DHT22;69532;37.974;23.708;2023-04-29T05:53:53;22.80;31.90
80216;DHT22;69532;37.974;23.708;2023-04-29T05:56:19;22.90;32.10
80216;DHT22;69532;37.974;23.708;2023-04-29T05:58:45;22.90;31.90
80216;DHT22;69532;37.974;23.708;2023-04-29T06:01:10;22.90;32.20
80216;DHT22;69532;37.974;23.708;2023-04-29T06:03:36;23.00;31.80
80216;DHT22;69532;37.974;23.708;2023-04-29T06:06:02;23.00;31.60
80216;DHT22;69532;37.974;23.708;2023-04-29T06:08:28;23.00;32.20
80216;DHT22;69532;37.974;23.708;2023-04-29T06:10:54;23.10;32.30
80216;DHT22;69532;37.974;23.708;2023-04-29T06:13:20;23.10;31.90
80216;DHT22;69532;37.974;23.708;2023-04-29T06:15:46;23.20;31.90
80216;DHT22;69532;37.974;23.708;2023-04-29T06:18:11;23.20;31.80
80216;DHT22;69532;37.974;23.708;2023-04-29T06:20:37;23.20;31.70
80216;DHT22;69532;37.974;23.708;2023-04-29T06:23:03;23.30;31.80
80216;DHT22;69532;37.974;23.708;2023-04-29T06:25:29;23.30;31.60
80216;DHT22;69532;37.974;23.708;2023-04-29T06:27:58;23.40;31.20
80216;DHT22;69532;37.974;23.708;2023-04-29T06:30:25;23.50;31.30
80216;DHT22;69532;37.974;23.708;2023-04-29T06:32:50;23.50;31.20
80216;DHT22;69532;37.974;23.708;2023-04-29T06:35:16;23.50;31.00
80216;DHT22;69532;37.974;23.708;2023-04-29T06:37:42;23.50;30.90
80216;DHT22;69532;37.974;23.708;2023-04-29T06:40:08;23.60;30.70
80216;DHT22;69532;37.974;23.708;2023-04-29T06:42:33;23.60;30.50
80216;DHT22;69532;37.974;23.708;2023-04-29T06:44:59;23.70;30.50
80216;DHT22;69532;37.974;23.708;2023-04-29T06:47:25;23.70;30.40
80216;DHT22;69532;37.974;23.708;2023-04-29T06:49:50;23.70;30.50
80216;DHT22;69532;37.974;23.708;2023-04-29T06:52:17;23.70;30.50
80216;DHT22;69532;37.974;23.708;2023-04-29T06:54:43;23.70;30.40
80216;DHT22;69532;37.974;23.708;2023-04-29T06:57:09;23.60;30.30
80216;DHT22;69532;37.974;23.708;2023-04-29T06:59:34;23.60;30.40
80216;DHT22;69532;37.974;23.708;2023-04-29T07:02:00;23.60;30.50
80216;DHT22;69532;37.974;23.708;2023-04-29T07:04:26;23.60;30.50
80216;DHT22;69532;37.974;23.708;2023-04-29T07:06:52;23.60;30.50
80216;DHT22;69532;37.974;23.708;2023-04-29T07:09:18;23.60;30.50
80216;DHT22;69532;37.974;23.708;2023-04-29T07:11:44;23.60;30.40
80216;DHT22;69532;37.974;23.708;2023-04-29T07:14:09;23.60;30.50
80216;DHT22;69532;37.974;23.708;2023-04-29T07:16:35;23.60;30.30
80216;DHT22;69532;37.974;23.708;2023-04-29T07:19:01;23.60;30.00
80216;DHT22;69532;37.974;23.708;2023-04-29T07:21:27;23.70;30.10
80216;DHT22;69532;37.974;23.708;2023-04-29T07:23:52;23.70;31.10
80216;DHT22;69532;37.974;23.708;2023-04-29T07:26:19;23.70;30.00
80216;DHT22;69532;37.974;23.708;2023-04-29T07:28:47;23.70;30.00
80216;DHT22;69532;37.974;23.708;2023-04-29T07:31:14;23.70;30.00
80216;DHT22;69532;37.974;23.708;2023-04-29T07:33:41;23.70;30.00
80216;DHT22;69532;37.974;23.708;2023-04-29T07:36:06;23.80;30.00
80216;DHT22;69532;37.974;23.708;2023-04-29T07:38:32;23.80;29.80
80216;DHT22;69532;37.974;23.708;2023-04-29T07:40:59;23.90;29.80
80216;DHT22;69532;37.974;23.708;2023-04-29T07:43:24;23.80;29.80
80216;DHT22;69532;37.974;23.708;2023-04-29T07:45:50;23.80;29.80
80216;DHT22;69532;37.974;23.708;2023-04-29T07:48:16;23.90;29.80
80216;DHT22;69532;37.974;23.708;2023-04-29T07:50:42;23.90;29.80
80216;DHT22;69532;37.974;23.708;2023-04-29T07:53:08;23.90;29.80
80216;DHT22;69532;37.974;23.708;2023-04-29T07:55:36;23.90;29.80
80216;DHT22;69532;37.974;23.708;2023-04-29T07:58:02;23.90;29.80
80216;DHT22;69532;37.974;23.708;2023-04-29T08:00:28;23.90;29.80
80216;DHT22;69532;37.974;23.708;2023-04-29T08:02:54;23.90;30.00
80216;DHT22;69532;37.974;23.708;2023-04-29T08:05:21;23.90;29.80
80216;DHT22;69532;37.974;23.708;2023-04-29T08:07:47;23.90;29.80
80216;DHT22;69532;37.974;23.708;2023-04-29T08:10:14;23.90;29.80
80216;DHT22;69532;37.974;23.708;2023-04-29T08:12:40;24.00;29.80
80216;DHT22;69532;37.974;23.708;2023-04-29T08:15:06;24.00;29.80
80216;DHT22;69532;37.974;23.708;2023-04-29T08:17:32;24.00;29.80
80216;DHT22;69532;37.974;23.708;2023-04-29T08:19:58;24.00;29.90
80216;DHT22;69532;37.974;23.708;2023-04-29T08:22:23;24.00;29.80
80216;DHT22;69532;37.974;23.708;2023-04-29T08:24:49;24.00;29.80
80216;DHT22;69532;37.974;23.708;2023-04-29T08:27:15;23.90;29.80
80216;DHT22;69532;37.974;23.708;2023-04-29T08:29:41;23.90;29.90
80216;DHT22;69532;37.974;23.708;2023-04-29T08:32:07;24.00;29.90
80216;DHT22;69532;37.974;23.708;2023-04-29T08:34:33;24.00;29.80
80216;DHT22;69532;37.974;23.708;2023-04-29T08:37:01;24.00;29.90
80216;DHT22;69532;37.974;23.708;2023-04-29T08:39:28;24.00;29.90
80216;DHT22;69532;37.974;23.708;2023-04-29T08:41:58;24.00;29.90
80216;DHT22;69532;37.974;23.708;2023-04-29T08:44:25;24.00;30.00
80216;DHT22;69532;37.974;23.708;2023-04-29T08:46:54;24.00;29.90
80216;DHT22;69532;37.974;23.708;2023-04-29T08:49:21;24.00;29.80
80216;DHT22;69532;37.974;23.708;2023-04-29T08:51:48;24.00;29.90
80216;DHT22;69532;37.974;23.708;2023-04-29T08:54:16;24.00;29.90
80216;DHT22;69532;37.974;23.708;2023-04-29T08:56:44;24.00;29.90
80216;DHT22;69532;37.974;23.708;2023-04-29T08:59:11;24.00;29.80
80216;DHT22;69532;37.974;23.708;2023-04-29T09:01:39;24.00;29.90
80216;DHT22;69532;37.974;23.708;2023-04-29T09:06:50;24.10;29.80
80216;DHT22;69532;37.974;23.708;2023-04-29T09:09:17;24.00;29.70
80216;DHT22;69532;37.974;23.708;2023-04-29T09:11:43;24.00;29.80
80216;DHT22;69532;37.974;23.708;2023-04-29T09:14:09;24.10;29.90
80216;DHT22;69532;37.974;23.708;2023-04-29T09:16:35;24.00;29.80
80216;DHT22;69532;37.974;23.708;2023-04-29T09:19:02;24.00;29.80
80216;DHT22;69532;37.974;23.708;2023-04-29T09:21:28;24.00;29.80
80216;DHT22;69532;37.974;23.708;2023-04-29T09:24:02;24.00;29.80
80216;DHT22;69532;37.974;23.708;2023-04-29T09:26:40;24.10;29.80
80216;DHT22;69532;37.974;23.708;2023-04-29T09:29:07;24.10;29.90
80216;DHT22;69532;37.974;23.708;2023-04-29T09:31:34;24.00;29.90
80216;DHT22;69532;37.974;23.708;2023-04-29T09:34:00;24.10;29.90
80216;DHT22;69532;37.974;23.708;2023-04-29T09:36:47;24.10;30.00
80216;DHT22;69532;37.974;23.708;2023-04-29T09:44:20;24.00;30.00
80216;DHT22;69532;37.974;23.708;2023-04-29T09:47:05;24.00;30.00
80216;DHT22;69532;37.974;23.708;2023-04-29T09:52:08;24.00;30.00
80216;DHT22;69532;37.974;23.708;2023-04-29T09:54:35;24.00;30.00
80216;DHT22;69532;37.974;23.708;2023-04-29T09:57:01;24.10;30.00
80216;DHT22;69532;37.974;23.708;2023-04-29T09:59:32;24.00;30.00
80216;DHT22;69532;37.974;23.708;2023-04-29T10:02:01;24.00;30.00
80216;DHT22;69532;37.974;23.708;2023-04-29T10:04:30;24.00;30.00
80216;DHT22;69532;37.974;23.708;2023-04-29T10:06:58;24.00;30.00
80216;DHT22;69532;37.974;23.708;2023-04-29T10:09:25;24.00;30.00
80216;DHT22;69532;37.974;23.708;2023-04-29T10:11:52;24.00;30.10
80216;DHT22;69532;37.974;23.708;2023-04-29T10:14:20;24.00;30.10
80216;DHT22;69532;37.974;23.708;2023-04-29T10:16:49;24.10;30.10
80216;DHT22;69532;37.974;23.708;2023-04-29T10:20:16;24.00;30.10
80216;DHT22;69532;37.974;23.708;2023-04-29T10:22:35;24.10;30.20
80216;DHT22;69532;37.974;23.708;2023-04-29T10:25:04;24.00;30.10
80216;DHT22;69532;37.974;23.708;2023-04-29T10:27:32;24.00;30.20
80216;DHT22;69532;37.974;23.708;2023-04-29T10:30:00;24.00;30.30
80216;DHT22;69532;37.974;23.708;2023-04-29T10:32:27;24.00;30.30
80216;DHT22;69532;37.974;23.708;2023-04-29T10:34:54;24.00;30.20
80216;DHT22;69532;37.974;23.708;2023-04-29T10:37:22;24.00;30.30
80216;DHT22;69532;37.974;23.708;2023-04-29T10:40:01;24.00;30.30
80216;DHT22;69532;37.974;23.708;2023-04-29T10:42:56;24.00;30.20
80216;DHT22;69532;37.974;23.708;2023-04-29T10:45:28;24.00;30.20
80216;DHT22;69532;37.974;23.708;2023-04-29T10:53:15;24.00;30.30
80216;DHT22;69532;37.974;23.708;2023-04-29T10:55:45;24.00;30.30
80216;DHT22;69532;37.974;23.708;2023-04-29T11:01:02;24.00;30.30
80216;DHT22;69532;37.974;23.708;2023-04-29T11:03:54;24.00;30.30
80216;DHT22;69532;37.974;23.708;2023-04-29T11:06:38;24.00;30.30
80216;DHT22;69532;37.974;23.708;2023-04-29T11:09:08;24.00;30.40
80216;DHT22;69532;37.974;23.708;2023-04-29T11:14:11;24.00;30.40
80216;DHT22;69532;37.974;23.708;2023-04-29T11:16:37;24.00;30.30
80216;DHT22;69532;37.974;23.708;2023-04-29T11:19:07;24.00;30.30
80216;DHT22;69532;37.974;23.708;2023-04-29T11:21:34;24.00;30.30
80216;DHT22;69532;37.974;23.708;2023-04-29T11:24:00;24.00;30.30
80216;DHT22;69532;37.974;23.708;2023-04-29T11:26:27;24.00;30.30
80216;DHT22;69532;37.974;23.708;2023-04-29T11:28:53;24.00;30.30
80216;DHT22;69532;37.974;23.708;2023-04-29T11:31:25;24.00;30.20
80216;DHT22;69532;37.974;23.708;2023-04-29T11:33:53;24.00;30.30
80216;DHT22;69532;37.974;23.708;2023-04-29T11:36:18;24.00;30.20
80216;DHT22;69532;37.974;23.708;2023-04-29T11:38:44;24.00;30.20
80216;DHT22;69532;37.974;23.708;2023-04-29T11:41:10;24.00;30.20
80216;DHT22;69532;37.974;23.708;2023-04-29T11:43:37;24.00;30.20
80216;DHT22;69532;37.974;23.708;2023-04-29T11:46:13;24.00;30.20
80216;DHT22;69532;37.974;23.708;2023-04-29T11:48:45;24.00;30.10
80216;DHT22;69532;37.974;23.708;2023-04-29T11:51:13;24.00;30.20
80216;DHT22;69532;37.974;23.708;2023-04-29T11:53:39;24.00;30.10
80216;DHT22;69532;37.974;23.708;2023-04-29T11:56:05;24.00;30.10
80216;DHT22;69532;37.974;23.708;2023-04-29T11:58:31;24.00;30.10
80216;DHT22;69532;37.974;23.708;2023-04-29T12:00:59;24.00;30.00
80216;DHT22;69532;37.974;23.708;2023-04-29T12:03:25;24.00;30.00
80216;DHT22;69532;37.974;23.708;2023-04-29T12:05:53;24.00;30.00
80216;DHT22;69532;37.974;23.708;2023-04-29T12:08:27;24.00;30.00
80216;DHT22;69532;37.974;23.708;2023-04-29T12:10:55;24.00;30.00
80216;DHT22;69532;37.974;23.708;2023-04-29T12:13:29;24.00;30.00
80216;DHT22;69532;37.974;23.708;2023-04-29T12:15:55;24.00;30.00
80216;DHT22;69532;37.974;23.708;2023-04-29T12:18:21;23.90;30.00
80216;DHT22;69532;37.974;23.708;2023-04-29T12:20:48;23.90;30.00
80216;DHT22;69532;37.974;23.708;2023-04-29T12:23:23;23.90;30.00
80216;DHT22;69532;37.974;23.708;2023-04-29T12:25:53;23.90;30.00
80216;DHT22;69532;37.974;23.708;2023-04-29T12:28:19;23.90;30.00
80216;DHT22;69532;37.974;23.708;2023-04-29T12:30:50;23.90;30.00
80216;DHT22;69532;37.974;23.708;2023-04-29T12:33:26;23.90;31.10
80216;DHT22;69532;37.974;23.708;2023-04-29T12:35:54;23.90;30.00
80216;DHT22;69532;37.974;23.708;2023-04-29T12:38:21;23.90;30.00
80216;DHT22;69532;37.974;23.708;2023-04-29T12:40:47;23.90;30.00
80216;DHT22;69532;37.974;23.708;2023-04-29T12:43:14;23.90;30.00
80216;DHT22;69532;37.974;23.708;2023-04-29T12:45:40;23.90;30.00
80216;DHT22;69532;37.974;23.708;2023-04-29T12:48:06;23.80;30.00
80216;DHT22;69532;37.974;23.708;2023-04-29T12:50:36;23.80;30.00
80216;DHT22;69532;37.974;23.708;2023-04-29T12:53:04;23.80;30.10
80216;DHT22;69532;37.974;23.708;2023-04-29T12:55:32;23.90;30.20
80216;DHT22;69532;37.974;23.708;2023-04-29T12:57:59;23.80;30.20
80216;DHT22;69532;37.974;23.708;2023-04-29T13:00:24;23.80;30.30
80216;DHT22;69532;37.974;23.708;2023-04-29T13:02:50;23.80;31.40
80216;DHT22;69532;37.974;23.708;2023-04-29T13:05:16;23.80;30.40
80216;DHT22;69532;37.974;23.708;2023-04-29T13:07:42;23.80;30.40
80216;DHT22;69532;37.974;23.708;2023-04-29T13:10:08;23.80;30.40
80216;DHT22;69532;37.974;23.708;2023-04-29T13:12:34;23.80;30.60
80216;DHT22;69532;37.974;23.708;2023-04-29T13:15:00;23.80;30.50
80216;DHT22;69532;37.974;23.708;2023-04-29T13:17:25;23.80;30.60
80216;DHT22;69532;37.974;23.708;2023-04-29T13:19:51;23.80;30.70
80216;DHT22;69532;37.974;23.708;2023-04-29T13:22:17;23.80;30.80
80216;DHT22;69532;37.974;23.708;2023-04-29T13:24:43;23.70;30.80
80216;DHT22;69532;37.974;23.708;2023-04-29T13:27:08;23.80;30.90
80216;DHT22;69532;37.974;23.708;2023-04-29T13:29:35;23.70;30.80
80216;DHT22;69532;37.974;23.708;2023-04-29T13:32:00;23.80;30.90
80216;DHT22;69532;37.974;23.708;2023-04-29T13:34:26;23.80;31.00
80216;DHT22;69532;37.974;23.708;2023-04-29T13:36:52;23.80;31.00
80216;DHT22;69532;37.974;23.708;2023-04-29T13:39:18;23.70;31.00
80216;DHT22;69532;37.974;23.708;2023-04-29T13:41:45;23.70;31.00
80216;DHT22;69532;37.974;23.708;2023-04-29T13:44:11;23.70;31.10
80216;DHT22;69532;37.974;23.708;2023-04-29T13:46:36;23.70;31.10
80216;DHT22;69532;37.974;23.708;2023-04-29T13:49:02;23.70;31.30
80216;DHT22;69532;37.974;23.708;2023-04-29T13:51:28;23.70;31.30
80216;DHT22;69532;37.974;23.708;2023-04-29T13:53:54;23.70;31.30
80216;DHT22;69532;37.974;23.708;2023-04-29T13:56:20;23.70;31.40
80216;DHT22;69532;37.974;23.708;2023-04-29T13:58:47;23.70;31.60
80216;DHT22;69532;37.974;23.708;2023-04-29T14:01:14;23.70;31.60
80216;DHT22;69532;37.974;23.708;2023-04-29T14:03:40;23.70;31.50
80216;DHT22;69532;37.974;23.708;2023-04-29T14:06:06;23.70;31.70
80216;DHT22;69532;37.974;23.708;2023-04-29T14:08:32;23.70;31.70
80216;DHT22;69532;37.974;23.708;2023-04-29T14:10:57;23.70;31.70
80216;DHT22;69532;37.974;23.708;2023-04-29T14:13:23;23.60;31.60
80216;DHT22;69532;37.974;23.708;2023-04-29T14:15:49;23.70;31.80
80216;DHT22;69532;37.974;23.708;2023-04-29T14:18:15;23.60;31.80
80216;DHT22;69532;37.974;23.708;2023-04-29T14:20:40;23.60;31.80
80216;DHT22;69532;37.974;23.708;2023-04-29T14:23:06;23.60;31.80
80216;DHT22;69532;37.974;23.708;2023-04-29T14:25:32;23.60;31.90
80216;DHT22;69532;37.974;23.708;2023-04-29T14:27:58;23.60;31.90
80216;DHT22;69532;37.974;23.708;2023-04-29T14:30:23;23.60;32.00
80216;DHT22;69532;37.974;23.708;2023-04-29T14:32:49;23.60;32.10
80216;DHT22;69532;37.974;23.708;2023-04-29T14:35:15;23.60;32.10
80216;DHT22;69532;37.974;23.708;2023-04-29T14:37:41;23.60;32.20
80216;DHT22;69532;37.974;23.708;2023-04-29T14:40:07;23.60;32.20
80216;DHT22;69532;37.974;23.708;2023-04-29T14:42:33;23.60;32.20
80216;DHT22;69532;37.974;23.708;2023-04-29T14:44:59;23.60;32.20
80216;DHT22;69532;37.974;23.708;2023-04-29T14:47:25;23.60;32.30
80216;DHT22;69532;37.974;23.708;2023-04-29T14:49:51;23.50;32.20
80216;DHT22;69532;37.974;23.708;2023-04-29T14:52:16;23.50;32.40
80216;DHT22;69532;37.974;23.708;2023-04-29T14:54:42;23.50;32.40
80216;DHT22;69532;37.974;23.708;2023-04-29T14:57:08;23.50;32.30
80216;DHT22;69532;37.974;23.708;2023-04-29T14:59:35;23.50;32.30
80216;DHT22;69532;37.974;23.708;2023-04-29T15:02:00;23.50;32.20
80216;DHT22;69532;37.974;23.708;2023-04-29T15:04:26;23.50;32.20
80216;DHT22;69532;37.974;23.708;2023-04-29T15:06:52;23.50;32.30
80216;DHT22;69532;37.974;23.708;2023-04-29T15:09:19;23.50;32.30
80216;DHT22;69532;37.974;23.708;2023-04-29T15:11:44;23.50;32.40
80216;DHT22;69532;37.974;23.708;2023-04-29T15:14:10;23.50;32.40
80216;DHT22;69532;37.974;23.708;2023-04-29T15:16:36;23.50;32.50
80216;DHT22;69532;37.974;23.708;2023-04-29T15:19:02;23.50;32.50
80216;DHT22;69532;37.974;23.708;2023-04-29T15:21:28;23.50;32.40
80216;DHT22;69532;37.974;23.708;2023-04-29T15:23:54;23.50;32.60
80216;DHT22;69532;37.974;23.708;2023-04-29T15:26:20;23.50;32.50
80216;DHT22;69532;37.974;23.708;2023-04-29T15:28:46;23.50;32.60
80216;DHT22;69532;37.974;23.708;2023-04-29T15:31:12;23.40;32.60
80216;DHT22;69532;37.974;23.708;2023-04-29T15:33:37;23.50;32.60
80216;DHT22;69532;37.974;23.708;2023-04-29T15:36:04;23.40;32.50
80216;DHT22;69532;37.974;23.708;2023-04-29T15:38:30;23.40;32.60
80216;DHT22;69532;37.974;23.708;2023-04-29T15:40:57;23.40;32.60
80216;DHT22;69532;37.974;23.708;2023-04-29T15:43:29;23.50;33.00
80216;DHT22;69532;37.974;23.708;2023-04-29T15:45:55;23.50;33.00
80216;DHT22;69532;37.974;23.708;2023-04-29T15:48:21;23.40;32.70